Challenge JP Guerit

Le Jogging Des Poires - Pesche (10.25 km)

samedi 24 août 2019

Le classement original se trouve sur : http://www.challenge-guerit.be/
 
CHALLENGE JP GUERIT
LE JOGGING DES POIRES - PESCHE
DISTANCE 10.25 km
samedi 24 août 2019
 
place
finish
dos NOM Equipe Catég. Place
catégorie
temps temps/km Vitesse
1 61 FRICOTEAUX VICTOR - SEN H 1 00:39:55 03:54 15.41
2 59 LEBLANC RENAUD JACO SEN H 2 00:40:04 03:55 15.35
3 43 GHISLAIN MAXIMILIEN TDF SEN H 3 00:40:20 03:56 15.25
4 62 VAN LERBERGHE MARTIN JACO SEN H 4 00:40:37 03:58 15.14
5 65 BAILLY JONATHAN - SEN H 5 00:42:24 04:08 14.50
6 150 RENARD LUC SHARKS V2 1 00:43:25 04:14 14.17
7 159 RENARD YVES CTA V2 2 00:44:04 04:18 13.96
8 169 RENARD GUY CCSTC V2 3 00:45:02 04:24 13.66
9 93 CHENAH MEDHI GRAC REVIN V1 1 00:45:16 04:25 13.59
10 26 MAUDOUX LIONEL JACO SEN H 6 00:45:18 04:25 13.58
11 88 THOMAS DOMINIC ACCO V2 4 00:45:46 04:28 13.44
12 30 ROCHETTE ARNAUD - SEN H 7 00:46:53 04:34 13.12
13 122 DROMELET VINCENT JTRR V1 2 00:47:06 04:36 13.06
14 69 RICHARD SÉBASTIEN CSCV HIRSON V1 3 00:47:47 04:40 12.87
15 82 GAYE JEAN-FRANÇOIS PWÈRES V1 4 00:48:20 04:43 12.72
16 147 DEPAIX GAËL - V1 5 00:48:34 04:44 12.66
17 127 LEROY JEAN-PIERRE ACCO V1 6 00:49:02 04:47 12.54
18 133 SOUMOY ALAIN ACCO V2 5 00:49:24 04:49 12.45
19 35 DUBOIS SÉBASTIEN LA THURE V1 7 00:49:36 04:50 12.40
20 8 BRICE JEAN-MARIE - V3 1 00:49:51 04:52 12.34
21 54 GUIOT FABRICE LA THURE V2 6 00:50:24 04:55 12.20
22 152 GAULIER PIERRE - V2 7 00:50:52 04:58 12.09
23 129 BAILLY KARL JACO V1 8 00:50:59 04:58 12.06
24 83 NICOLAS JEAN-JACQUES PESCHE V2 8 00:51:03 04:59 12.05
25 102 MARTIN LIONEL ROCROI SPORTS NATURE V1 9 00:51:27 05:01 11.95
26 63 DESIMEUR JÉRÔME AC FRONTIERES V1 10 00:51:51 05:04 11.86
27 10 BRUNEBARBE JOËL LA THURE V1 11 00:52:02 05:05 11.82
28 163 VERMEULEN JEAN CAMBRAI V2 9 00:52:39 05:08 11.68
29 57 LEJEUNE ALAIN JACO V2 10 00:52:48 05:09 11.65
30 154 VANDENBERGHE JÉRÔME - SEN H 8 00:53:01 05:10 11.60
31 40 LEROY JORIS JACO SEN H 9 00:53:06 05:11 11.58
32 19 HAMOIR KAREN ESM A1 1 00:53:13 05:12 11.56
33 138 GUERIT STÉPHANE - V1 12 00:53:14 05:12 11.55
34 161 CORDEWENER ALAIN AC FRONTIERES V2 11 00:53:35 05:14 11.48
35 146 DUPUIS JEAN-SÉBASTIEN JACO V1 13 00:53:43 05:14 11.45
36 14 DEVILLE PHILIPPE JTRR V3 2 00:53:48 05:15 11.43
37 68 DAMBROISE KRISTEL - SEN F 1 00:54:23 05:18 11.31
38 81 BELLENGER BRUNO JTRR V1 14 00:54:46 05:21 11.23
39 33 VAN RENTERGHEM ANDRÉ ACCO V4 1 00:55:07 05:23 11.16
40 139 DERONNE JOACHIM - SEN H 10 00:55:22 05:24 11.11
41 164 DEGEZELLE STÉPHANE RTT 4C V2 12 00:55:33 05:25 11.07
42 11 CORDEWENER JOËL AC FRONTIERES V1 15 00:55:33 05:25 11.07
43 50 BUTEL LOÏC STRATOS RUNNING SEN H 11 00:55:38 05:26 11.05
44 131 DUTERME MICHEL - V3 3 00:55:43 05:26 11.04
45 58 POTY FRANCIS JC GERMINALT V2 13 00:55:45 05:26 11.03
46 9 BRICE VIRGINIE ESM A1 2 00:55:57 05:28 10.99
47 49 SOKAY MICHEL LA THURE V4 2 00:56:02 05:28 10.98
48 4 AUBERT SERGE CHUDONDORGANES V3 4 00:56:07 05:28 10.96
49 105 BODART ÉRIC - V2 14 00:56:17 05:29 10.93
50 168 LECUYER FRÉDÉRIC - V1 16 00:56:21 05:30 10.91
51 130 DARDENNE CÉDRIC - SEN H 12 00:56:28 05:31 10.89
52 155 BOSQUET JOSÉ LA THURE SEN H 13 00:56:48 05:32 10.83
53 143 LABILLOY FLORENT AC FRONTIERES SEN H 14 00:56:55 05:33 10.81
54 118 FRANÇOIS RAPHAËL - JUH 1 00:56:57 05:33 10.80
55 119 FRANÇOIS HERVÉ BARLOS SEN H 15 00:56:57 05:33 10.80
56 117 JOCAILLE NATHAN - SEN H 16 00:57:17 05:35 10.74
57 103 RAVIAT ALAIN TEAM 1- V1 17 00:57:26 05:36 10.71
58 104 RAVIAT NADIA MACGAN A2 1 00:57:34 05:37 10.68
59 3 HENRARD ETIENNE AC FRONTIERES V3 5 00:57:37 05:37 10.67
60 115 BOURLARD MARC CHIMAY-TRAIL-AVENTURE V1 18 00:57:46 05:38 10.65
61 47 NICOLAS CATHERINE - A1 3 00:58:05 05:40 10.59
62 97 SPITALERI MARIO CIAO ITALIA V3 6 00:58:07 05:40 10.58
63 123 BLONDEEL ILSE JOG HERMETON A1 4 00:58:34 05:43 10.50
64 126 VIOT JOËL MACERIENNE V4 3 00:59:02 05:46 10.42
65 22 LEJEUNE PHILIPPE JACO V2 15 00:59:23 05:48 10.36
66 124 DEDONCKER DAMIEN JACO V1 19 00:59:52 05:50 10.27
67 167 CRESSON JULIEN ASPPTT SOIZE SEN H 17 00:59:53 05:51 10.27
68 18 GUILLAUME YVES JTRR V2 16 01:00:11 05:52 10.22
69 89 MOREAUX SAMUEL US PESCHE V2 17 01:00:44 05:56 10.13
70 113 NICOLAS BENJAMIN CDS x   01:01:01 05:57 10.08
71 15 FICHET DOMINIQUE JACO V1 20 01:01:06 05:58 10.07
72 137 PAQUET THOMAS - SEN H 18 01:01:46 06:02 9.96
73 106 DUCARME PASCAL CPMV V1 21 01:02:12 06:04 9.89
74 110 HOUZE THIERRY JTRR V1 22 01:02:19 06:05 9.87
75 45 DE PESTEL HERVÉ VAULX V2 18 01:03:42 06:13 9.65
76 107 CROWET VALÉRY - V1 23 01:03:56 06:14 9.62
77 109 CROWET VIVIAN - SEN H 19 01:03:56 06:14 9.62
78 85 DENIS CHRISTIAN ESM PROMUSPORT V4 4 01:04:14 06:16 9.57
79 99 WAUTHIER VINCENT - V1 24 01:04:27 06:17 9.54
80 121 DEMEUSE CHRISTELLE - A1 5 01:04:53 06:20 9.48
81 142 BASTIN JEAN-CHARLES AXA TEAM SEN H 20 01:04:59 06:20 9.46
82 91 LIBION MARC - V2 19 01:05:06 06:21 9.45
83 87 GALLUCCIO ANTONIO ESM V3 7 01:05:26 06:23 9.40
84 153 DRUARD MEGANE - SEN F 2 01:05:26 06:23 9.40
85 44 DE PESTEL COLINE VAULX SEN F 3 01:05:58 06:26 9.32
86 56 LINSTER ARNAUD STRATOS RUNNING SEN H 21 01:06:21 06:28 9.27
87 166 JONQUIN RAPHAËL STRATOS RUNING V1 25 01:06:21 06:28 9.27
88 21 HENRY PHILIPPE LA THURE V1 26 01:06:27 06:29 9.26
89 165 DOMINIQUE VINCENT CAMBRAI V3 8 01:06:46 06:31 9.21
90 94 NICOLAS JÉRÔME - SEN H 22 01:07:28 06:35 9.12
91 145 MEYAN JACQUES JTRR V4 5 01:07:36 06:36 9.10
92 136 PAQUET ROLAND JTRR V3 9 01:07:37 06:36 9.10
93 111 BOURTEMBOURG LAURENT TEAM SAMART V1 27 01:07:41 06:36 9.09
94 140 MOSTAUX DAVID - SEN H 23 01:08:46 06:43 8.94
95 116 GEORGES LAURENT JACO V2 20 01:09:20 06:46 8.87
96 132 COQUELET MICHEL LA THURE V3 10 01:09:28 06:47 8.85
97 114 RIVEZ NICOLAS STRATOS RUNING SEN H 24 01:09:50 06:49 8.81
98 53 WIAME ANNE FAIREBEL A1 6 01:10:24 06:52 8.74
99 37 FICHET LAURENT JACO V1 28 01:11:23 06:58 8.62
100 112 GALLOIS ERIC AC FRONTIERES V1 29 01:12:29 07:04 8.48
101 157 BRIQUET STÉPHANE - SEN H 25 01:13:05 07:08 8.42
102 162 BUYCK PASCAL ERPION V2 21 01:13:21 07:09 8.38
103 120 FRANÇOIS JUSTIN - SEN H 26 01:13:43 07:12 8.34
104 144 VAUBOURGERIX LAURIE AC FRONTIERES SEN F 4 01:13:58 07:13 8.31
105 156 LION EMILIE JCPMF SEN F 5 01:15:12 07:20 8.18
106 151 DAIX CHRISTIANE PHILIPPEVILLE A2 2 01:16:02 07:25 8.09
107 125 VIGREUX JEAN-MICHEL - V2 22 01:17:12 07:32 7.97
108 149 MICHAUX FRANÇOISE JTRR A2 3 01:17:29 07:34 7.94
109 148 GILLES PASCAL JTRR V2 23 01:17:29 07:34 7.94
110 96 RIFFLART MATHIEU JTRR SEN H 27 01:17:51 07:36 7.90
111 98 GUILLAUME SÉBASTIEN JTRR-SHARKS TRI SEN H 28 01:17:51 07:36 7.90
112 95 POUCET BERNARD JTRR V1 30 01:21:24 07:56 7.56
113 55 JONQUIN ROSE-MARIE STRATOS RUNNING A1 7 01:21:26 07:57 7.55
114 84 THIRION FANFAN ESM A4 1 01:23:01 08:06 7.41
115 92 GILLE ISALINE JTRR SEN F 6 01:23:12 08:07 7.39
116 128 BAUDAUX FRANCIS JCPMF V2 24 01:24:25 08:14 7.29